< Typhoon 201301 2013 Season Typhoon 201303 >
Typhoon 201302 (SHANSHAN)
General InformationTrack Information on Google MapsDetailed Wind InformationForecast History on Google MapsAccess Analytics MapList of All Images || NewsDisaster Info.WeblogTrackbackTyphoon FrontTwiphoonTyphoon Now!Typhoon ImaginationDisaster Info. XMLResourceGoogle EarthGE AnimationAtom FeedGeoJSON
Detalied Best Track (Time Zone = UTC)
Year Month Day Hour Lat. Long. Pressure (hPa) Wind (kt) Class Image Chart
2013 2 18 06 5.0 131.0 1002 0 2 Image Chart
2013 2 18 12 5.6 129.3 1002 0 2 Image Chart
2013 2 18 18 5.9 127.5 1002 0 2 Image Chart
2013 2 19 00 5.7 126.6 1004 0 2 Image Chart
2013 2 19 06 5.3 125.4 1004 0 2 Image Chart
2013 2 19 12 5.9 124.2 1004 0 2 Image Chart
2013 2 19 18 7.1 122.8 1004 0 2 Image Chart
2013 2 20 00 7.4 121.3 1004 0 2 Image Chart
2013 2 20 06 7.5 120.7 1002 0 2 Image Chart
2013 2 20 12 7.5 120.0 1004 0 2 Image Chart
2013 2 20 18 7.5 118.0 1004 0 2 Image Chart
2013 2 21 00 7.7 115.5 1004 0 2 Image Chart
2013 2 21 06 7.0 112.7 1004 0 2 Image Chart
2013 2 21 12 6.5 111.6 1004 0 2 Image Chart
2013 2 21 18 5.9 110.3 1002 35 3 Image Chart
2013 2 22 00 5.4 110.1 1002 35 3 Image Chart
2013 2 22 06 5.2 109.9 1002 35 3 Image Chart
2013 2 22 12 5.0 109.7 1004 0 2 Image Chart
2013 2 22 18 4.7 109.6 1004 0 2 Image Chart
2013 2 23 00 4.2 109.3 1006 0 2 Image Chart
Japan Meteorological Agency Best Track Data | Correction Date : 2013-03-18
< Typhoon 201301 2013 Season Typhoon 201303 >

Help